sensor_id;sensor_type;location;lat;lon;timestamp;P1;durP1;ratioP1;P2;durP2;ratioP2
3309;SDS011;1667;53.238;10.394;2022-11-18T00:01:30;15.23;;;8.07;;
3309;SDS011;1667;53.238;10.394;2022-11-18T00:06:30;10.57;;;6.50;;
3309;SDS011;1667;53.238;10.394;2022-11-18T00:11:28;19.07;;;9.50;;
3309;SDS011;1667;53.238;10.394;2022-11-18T00:16:44;11.07;;;6.73;;
3309;SDS011;1667;53.238;10.394;2022-11-18T00:21:44;15.90;;;7.30;;
3309;SDS011;1667;53.238;10.394;2022-11-18T00:26:43;15.47;;;8.23;;
3309;SDS011;1667;53.238;10.394;2022-11-18T00:31:42;13.73;;;8.07;;
3309;SDS011;1667;53.238;10.394;2022-11-18T00:36:40;13.53;;;8.83;;
3309;SDS011;1667;53.238;10.394;2022-11-18T00:41:40;13.47;;;8.30;;
3309;SDS011;1667;53.238;10.394;2022-11-18T00:46:56;17.53;;;8.93;;
3309;SDS011;1667;53.238;10.394;2022-11-18T00:51:54;16.40;;;8.43;;
3309;SDS011;1667;53.238;10.394;2022-11-18T00:56:54;18.53;;;10.63;;
3309;SDS011;1667;53.238;10.394;2022-11-18T01:01:52;17.97;;;11.37;;
3309;SDS011;1667;53.238;10.394;2022-11-18T01:06:50;16.37;;;10.00;;
3309;SDS011;1667;53.238;10.394;2022-11-18T01:11:49;17.23;;;8.80;;
3309;SDS011;1667;53.238;10.394;2022-11-18T01:17:06;19.30;;;9.37;;
3309;SDS011;1667;53.238;10.394;2022-11-18T01:22:04;15.27;;;9.60;;
3309;SDS011;1667;53.238;10.394;2022-11-18T01:27:02;10.70;;;7.47;;
3309;SDS011;1667;53.238;10.394;2022-11-18T01:32:00;14.97;;;9.97;;
3309;SDS011;1667;53.238;10.394;2022-11-18T01:37:20;14.90;;;8.50;;
3309;SDS011;1667;53.238;10.394;2022-11-18T01:42:18;14.87;;;7.97;;
3309;SDS011;1667;53.238;10.394;2022-11-18T01:47:16;12.07;;;7.20;;
3309;SDS011;1667;53.238;10.394;2022-11-18T01:52:15;9.30;;;6.33;;
3309;SDS011;1667;53.238;10.394;2022-11-18T01:57:15;14.20;;;8.73;;
3309;SDS011;1667;53.238;10.394;2022-11-18T02:02:18;15.10;;;8.57;;
3309;SDS011;1667;53.238;10.394;2022-11-18T02:07:17;13.97;;;7.40;;
3309;SDS011;1667;53.238;10.394;2022-11-18T02:12:18;14.90;;;8.90;;
3309;SDS011;1667;53.238;10.394;2022-11-18T02:17:19;11.10;;;7.40;;
3309;SDS011;1667;53.238;10.394;2022-11-18T02:22:47;15.47;;;9.17;;
3309;SDS011;1667;53.238;10.394;2022-11-18T02:28:24;11.20;;;7.80;;
3309;SDS011;1667;53.238;10.394;2022-11-18T02:33:35;11.57;;;7.70;;
3309;SDS011;1667;53.238;10.394;2022-11-18T02:38:40;14.60;;;7.80;;
3309;SDS011;1667;53.238;10.394;2022-11-18T02:49:13;13.87;;;8.60;;
3309;SDS011;1667;53.238;10.394;2022-11-18T02:54:16;11.07;;;7.50;;
3309;SDS011;1667;53.238;10.394;2022-11-18T02:59:16;19.90;;;12.50;;
3309;SDS011;1667;53.238;10.394;2022-11-18T03:04:16;14.07;;;9.23;;
3309;SDS011;1667;53.238;10.394;2022-11-18T03:09:17;19.63;;;11.87;;
3309;SDS011;1667;53.238;10.394;2022-11-18T03:14:23;17.10;;;11.10;;
3309;SDS011;1667;53.238;10.394;2022-11-18T03:19:36;19.10;;;11.03;;
3309;SDS011;1667;53.238;10.394;2022-11-18T03:24:46;17.13;;;10.50;;
3309;SDS011;1667;53.238;10.394;2022-11-18T03:29:53;17.70;;;9.70;;
3309;SDS011;1667;53.238;10.394;2022-11-18T03:34:56;14.77;;;8.67;;
3309;SDS011;1667;53.238;10.394;2022-11-18T03:39:59;19.97;;;10.90;;
3309;SDS011;1667;53.238;10.394;2022-11-18T03:45:01;21.57;;;13.07;;
3309;SDS011;1667;53.238;10.394;2022-11-18T03:50:05;15.63;;;9.07;;
3309;SDS011;1667;53.238;10.394;2022-11-18T03:55:09;19.97;;;11.50;;
3309;SDS011;1667;53.238;10.394;2022-11-18T04:00:12;20.80;;;11.70;;
3309;SDS011;1667;53.238;10.394;2022-11-18T04:05:13;20.80;;;11.20;;
3309;SDS011;1667;53.238;10.394;2022-11-18T04:10:14;37.20;;;10.80;;
3309;SDS011;1667;53.238;10.394;2022-11-18T04:15:14;22.10;;;12.10;;
3309;SDS011;1667;53.238;10.394;2022-11-18T04:20:16;21.47;;;11.33;;
3309;SDS011;1667;53.238;10.394;2022-11-18T04:25:15;25.60;;;13.77;;
3309;SDS011;1667;53.238;10.394;2022-11-18T04:30:14;18.47;;;9.47;;
3309;SDS011;1667;53.238;10.394;2022-11-18T04:35:12;15.70;;;9.50;;
3309;SDS011;1667;53.238;10.394;2022-11-18T04:40:12;21.37;;;10.50;;
3309;SDS011;1667;53.238;10.394;2022-11-18T04:45:10;23.63;;;13.03;;
3309;SDS011;1667;53.238;10.394;2022-11-18T04:50:09;22.30;;;13.10;;
3309;SDS011;1667;53.238;10.394;2022-11-18T04:55:07;16.80;;;8.67;;
3309;SDS011;1667;53.238;10.394;2022-11-18T05:00:07;18.40;;;10.20;;
3309;SDS011;1667;53.238;10.394;2022-11-18T05:05:06;22.73;;;12.10;;
3309;SDS011;1667;53.238;10.394;2022-11-18T05:10:05;18.87;;;10.30;;
3309;SDS011;1667;53.238;10.394;2022-11-18T05:15:04;24.30;;;13.23;;
3309;SDS011;1667;53.238;10.394;2022-11-18T05:20:04;15.97;;;9.50;;
3309;SDS011;1667;53.238;10.394;2022-11-18T05:25:03;13.67;;;9.67;;
3309;SDS011;1667;53.238;10.394;2022-11-18T05:30:02;21.33;;;12.40;;
3309;SDS011;1667;53.238;10.394;2022-11-18T05:35:01;19.87;;;10.63;;
3309;SDS011;1667;53.238;10.394;2022-11-18T05:40:01;18.37;;;10.90;;
3309;SDS011;1667;53.238;10.394;2022-11-18T05:45:00;22.20;;;11.80;;
3309;SDS011;1667;53.238;10.394;2022-11-18T05:49:58;24.23;;;13.33;;
3309;SDS011;1667;53.238;10.394;2022-11-18T05:54:57;17.60;;;10.50;;
3309;SDS011;1667;53.238;10.394;2022-11-18T05:59:55;18.83;;;10.77;;
3309;SDS011;1667;53.238;10.394;2022-11-18T06:04:55;20.00;;;12.03;;
3309;SDS011;1667;53.238;10.394;2022-11-18T06:09:56;17.80;;;11.40;;
3309;SDS011;1667;53.238;10.394;2022-11-18T06:15:02;20.23;;;8.80;;
3309;SDS011;1667;53.238;10.394;2022-11-18T06:20:05;25.57;;;13.47;;
3309;SDS011;1667;53.238;10.394;2022-11-18T06:25:06;21.97;;;13.20;;
3309;SDS011;1667;53.238;10.394;2022-11-18T06:30:05;21.40;;;12.57;;
3309;SDS011;1667;53.238;10.394;2022-11-18T06:35:04;22.60;;;11.97;;
3309;SDS011;1667;53.238;10.394;2022-11-18T06:40:04;19.80;;;12.53;;
3309;SDS011;1667;53.238;10.394;2022-11-18T06:45:05;16.10;;;11.40;;
3309;SDS011;1667;53.238;10.394;2022-11-18T06:50:04;26.73;;;14.50;;
3309;SDS011;1667;53.238;10.394;2022-11-18T06:55:03;21.00;;;9.93;;
3309;SDS011;1667;53.238;10.394;2022-11-18T07:00:06;22.13;;;12.50;;
3309;SDS011;1667;53.238;10.394;2022-11-18T07:05:05;18.43;;;11.67;;
3309;SDS011;1667;53.238;10.394;2022-11-18T07:10:03;24.20;;;12.70;;
3309;SDS011;1667;53.238;10.394;2022-11-18T07:15:02;24.80;;;13.67;;
3309;SDS011;1667;53.238;10.394;2022-11-18T07:20:03;18.07;;;11.37;;
3309;SDS011;1667;53.238;10.394;2022-11-18T07:25:01;27.60;;;13.77;;
3309;SDS011;1667;53.238;10.394;2022-11-18T07:36:00;25.10;;;14.27;;
3309;SDS011;1667;53.238;10.394;2022-11-18T07:41:03;25.67;;;16.13;;
3309;SDS011;1667;53.238;10.394;2022-11-18T07:46:11;26.90;;;15.53;;
3309;SDS011;1667;53.238;10.394;2022-11-18T07:51:13;18.67;;;10.93;;
3309;SDS011;1667;53.238;10.394;2022-11-18T07:56:13;26.57;;;14.93;;
3309;SDS011;1667;53.238;10.394;2022-11-18T08:01:13;30.13;;;16.70;;
3309;SDS011;1667;53.238;10.394;2022-11-18T08:06:15;25.50;;;12.50;;
3309;SDS011;1667;53.238;10.394;2022-11-18T08:11:14;25.30;;;14.50;;
3309;SDS011;1667;53.238;10.394;2022-11-18T08:16:18;25.00;;;14.73;;
3309;SDS011;1667;53.238;10.394;2022-11-18T08:21:19;23.87;;;13.90;;
3309;SDS011;1667;53.238;10.394;2022-11-18T08:26:18;25.30;;;13.50;;
3309;SDS011;1667;53.238;10.394;2022-11-18T08:31:17;24.67;;;13.97;;
3309;SDS011;1667;53.238;10.394;2022-11-18T08:36:20;14.73;;;8.67;;
3309;SDS011;1667;53.238;10.394;2022-11-18T08:41:20;26.37;;;12.90;;
3309;SDS011;1667;53.238;10.394;2022-11-18T08:46:24;21.47;;;12.50;;
3309;SDS011;1667;53.238;10.394;2022-11-18T08:51:24;22.03;;;11.53;;
3309;SDS011;1667;53.238;10.394;2022-11-18T08:56:24;9.80;;;6.47;;
3309;SDS011;1667;53.238;10.394;2022-11-18T09:01:22;24.03;;;11.80;;
3309;SDS011;1667;53.238;10.394;2022-11-18T09:06:21;24.67;;;11.67;;
3309;SDS011;1667;53.238;10.394;2022-11-18T09:11:22;20.40;;;12.07;;
3309;SDS011;1667;53.238;10.394;2022-11-18T09:16:21;22.33;;;12.30;;
3309;SDS011;1667;53.238;10.394;2022-11-18T09:21:24;23.50;;;13.17;;
3309;SDS011;1667;53.238;10.394;2022-11-18T09:26:24;23.07;;;13.93;;
3309;SDS011;1667;53.238;10.394;2022-11-18T09:31:22;26.23;;;13.23;;
3309;SDS011;1667;53.238;10.394;2022-11-18T09:36:21;20.07;;;11.30;;
3309;SDS011;1667;53.238;10.394;2022-11-18T09:46:43;18.60;;;11.83;;
3309;SDS011;1667;53.238;10.394;2022-11-18T09:51:53;14.70;;;9.40;;
3309;SDS011;1667;53.238;10.394;2022-11-18T09:56:54;21.97;;;11.90;;
3309;SDS011;1667;53.238;10.394;2022-11-18T10:01:54;22.77;;;13.57;;
3309;SDS011;1667;53.238;10.394;2022-11-18T10:06:59;22.57;;;10.00;;
3309;SDS011;1667;53.238;10.394;2022-11-18T10:12:13;27.80;;;14.20;;
3309;SDS011;1667;53.238;10.394;2022-11-18T10:17:23;22.07;;;14.57;;
3309;SDS011;1667;53.238;10.394;2022-11-18T10:22:36;27.50;;;15.30;;
3309;SDS011;1667;53.238;10.394;2022-11-18T10:27:40;23.30;;;12.50;;
3309;SDS011;1667;53.238;10.394;2022-11-18T10:38:02;16.97;;;10.67;;
3309;SDS011;1667;53.238;10.394;2022-11-18T10:43:08;27.83;;;14.87;;
3309;SDS011;1667;53.238;10.394;2022-11-18T10:48:07;20.20;;;10.80;;
3309;SDS011;1667;53.238;10.394;2022-11-18T10:53:27;18.57;;;10.43;;
3309;SDS011;1667;53.238;10.394;2022-11-18T10:58:29;22.27;;;12.37;;
3309;SDS011;1667;53.238;10.394;2022-11-18T11:03:30;22.60;;;13.87;;
3309;SDS011;1667;53.238;10.394;2022-11-18T11:08:31;20.23;;;12.03;;
3309;SDS011;1667;53.238;10.394;2022-11-18T11:13:34;21.03;;;12.23;;
3309;SDS011;1667;53.238;10.394;2022-11-18T11:18:39;18.70;;;11.23;;
3309;SDS011;1667;53.238;10.394;2022-11-18T11:23:38;18.03;;;10.70;;
3309;SDS011;1667;53.238;10.394;2022-11-18T11:28:38;20.50;;;11.07;;
3309;SDS011;1667;53.238;10.394;2022-11-18T11:33:41;21.17;;;12.47;;
3309;SDS011;1667;53.238;10.394;2022-11-18T11:38:50;19.97;;;11.90;;
3309;SDS011;1667;53.238;10.394;2022-11-18T11:44:11;15.00;;;10.27;;
3309;SDS011;1667;53.238;10.394;2022-11-18T11:49:25;20.40;;;10.90;;
3309;SDS011;1667;53.238;10.394;2022-11-18T11:54:32;15.57;;;7.70;;
3309;SDS011;1667;53.238;10.394;2022-11-18T11:59:42;18.63;;;10.73;;
3309;SDS011;1667;53.238;10.394;2022-11-18T12:04:43;16.17;;;9.80;;
3309;SDS011;1667;53.238;10.394;2022-11-18T12:09:51;14.60;;;9.20;;
3309;SDS011;1667;53.238;10.394;2022-11-18T12:15:05;15.80;;;9.77;;
3309;SDS011;1667;53.238;10.394;2022-11-18T12:25:42;13.50;;;7.00;;
3309;SDS011;1667;53.238;10.394;2022-11-18T12:30:49;13.23;;;9.33;;
3309;SDS011;1667;53.238;10.394;2022-11-18T12:36:13;14.43;;;8.20;;
3309;SDS011;1667;53.238;10.394;2022-11-18T12:47:07;14.40;;;8.53;;
3309;SDS011;1667;53.238;10.394;2022-11-18T12:52:43;13.80;;;7.70;;
3309;SDS011;1667;53.238;10.394;2022-11-18T12:57:46;10.77;;;5.80;;
3309;SDS011;1667;53.238;10.394;2022-11-18T13:02:49;9.57;;;6.77;;
3309;SDS011;1667;53.238;10.394;2022-11-18T13:07:50;13.13;;;7.07;;
3309;SDS011;1667;53.238;10.394;2022-11-18T13:13:11;8.97;;;5.83;;
3309;SDS011;1667;53.238;10.394;2022-11-18T13:18:18;11.43;;;6.60;;
3309;SDS011;1667;53.238;10.394;2022-11-18T13:23:25;12.30;;;7.30;;
3309;SDS011;1667;53.238;10.394;2022-11-18T13:28:42;8.27;;;5.40;;
3309;SDS011;1667;53.238;10.394;2022-11-18T13:33:49;10.30;;;5.83;;
3309;SDS011;1667;53.238;10.394;2022-11-18T13:38:56;10.53;;;7.50;;
3309;SDS011;1667;53.238;10.394;2022-11-18T13:43:56;11.97;;;6.13;;
3309;SDS011;1667;53.238;10.394;2022-11-18T13:49:09;10.83;;;6.60;;
3309;SDS011;1667;53.238;10.394;2022-11-18T13:54:16;7.90;;;4.87;;
3309;SDS011;1667;53.238;10.394;2022-11-18T13:59:19;9.93;;;6.90;;
3309;SDS011;1667;53.238;10.394;2022-11-18T14:04:20;12.40;;;6.20;;
3309;SDS011;1667;53.238;10.394;2022-11-18T14:09:23;10.30;;;6.60;;
3309;SDS011;1667;53.238;10.394;2022-11-18T14:14:26;10.00;;;6.83;;
3309;SDS011;1667;53.238;10.394;2022-11-18T14:19:27;11.03;;;7.53;;
3309;SDS011;1667;53.238;10.394;2022-11-18T14:24:28;10.27;;;7.40;;
3309;SDS011;1667;53.238;10.394;2022-11-18T14:29:26;9.17;;;6.60;;
3309;SDS011;1667;53.238;10.394;2022-11-18T14:34:25;9.60;;;6.87;;
3309;SDS011;1667;53.238;10.394;2022-11-18T14:39:25;7.70;;;5.53;;
3309;SDS011;1667;53.238;10.394;2022-11-18T14:44:27;9.80;;;5.80;;
3309;SDS011;1667;53.238;10.394;2022-11-18T14:49:26;11.10;;;7.10;;
3309;SDS011;1667;53.238;10.394;2022-11-18T14:54:27;9.07;;;6.53;;
3309;SDS011;1667;53.238;10.394;2022-11-18T14:59:25;10.10;;;7.03;;
3309;SDS011;1667;53.238;10.394;2022-11-18T15:04:25;12.73;;;8.67;;
3309;SDS011;1667;53.238;10.394;2022-11-18T15:09:23;7.63;;;5.33;;
3309;SDS011;1667;53.238;10.394;2022-11-18T15:14:21;14.40;;;8.23;;
3309;SDS011;1667;53.238;10.394;2022-11-18T15:19:21;13.70;;;8.70;;
3309;SDS011;1667;53.238;10.394;2022-11-18T15:24:19;7.73;;;5.70;;
3309;SDS011;1667;53.238;10.394;2022-11-18T15:29:19;11.77;;;8.53;;
3309;SDS011;1667;53.238;10.394;2022-11-18T15:34:18;14.00;;;8.73;;
3309;SDS011;1667;53.238;10.394;2022-11-18T15:39:18;12.63;;;8.63;;
3309;SDS011;1667;53.238;10.394;2022-11-18T15:44:16;10.13;;;7.63;;
3309;SDS011;1667;53.238;10.394;2022-11-18T15:49:15;14.40;;;9.07;;
3309;SDS011;1667;53.238;10.394;2022-11-18T15:54:13;11.30;;;7.53;;
3309;SDS011;1667;53.238;10.394;2022-11-18T15:59:14;10.70;;;5.87;;
3309;SDS011;1667;53.238;10.394;2022-11-18T16:04:13;15.30;;;9.80;;
3309;SDS011;1667;53.238;10.394;2022-11-18T16:09:13;10.30;;;7.60;;
3309;SDS011;1667;53.238;10.394;2022-11-18T16:14:15;13.57;;;9.70;;
3309;SDS011;1667;53.238;10.394;2022-11-18T16:19:16;12.80;;;8.70;;
3309;SDS011;1667;53.238;10.394;2022-11-18T16:24:16;10.97;;;8.43;;
3309;SDS011;1667;53.238;10.394;2022-11-18T16:29:17;14.00;;;9.87;;
3309;SDS011;1667;53.238;10.394;2022-11-18T16:34:17;17.40;;;8.77;;
3309;SDS011;1667;53.238;10.394;2022-11-18T16:39:17;16.60;;;8.97;;
3309;SDS011;1667;53.238;10.394;2022-11-18T16:44:20;13.50;;;8.50;;
3309;SDS011;1667;53.238;10.394;2022-11-18T16:49:19;14.17;;;9.40;;
3309;SDS011;1667;53.238;10.394;2022-11-18T16:54:19;18.07;;;8.97;;
3309;SDS011;1667;53.238;10.394;2022-11-18T16:59:21;20.67;;;10.73;;
3309;SDS011;1667;53.238;10.394;2022-11-18T17:04:20;18.67;;;9.17;;
3309;SDS011;1667;53.238;10.394;2022-11-18T17:09:20;21.20;;;10.80;;
3309;SDS011;1667;53.238;10.394;2022-11-18T17:14:20;15.03;;;9.33;;
3309;SDS011;1667;53.238;10.394;2022-11-18T17:19:20;12.60;;;8.57;;
3309;SDS011;1667;53.238;10.394;2022-11-18T17:24:20;17.47;;;9.17;;
3309;SDS011;1667;53.238;10.394;2022-11-18T17:29:21;18.20;;;10.40;;
3309;SDS011;1667;53.238;10.394;2022-11-18T17:34:19;21.30;;;10.60;;
3309;SDS011;1667;53.238;10.394;2022-11-18T17:39:17;10.07;;;6.40;;
3309;SDS011;1667;53.238;10.394;2022-11-18T17:44:16;18.23;;;11.47;;
3309;SDS011;1667;53.238;10.394;2022-11-18T17:49:16;18.37;;;9.97;;
3309;SDS011;1667;53.238;10.394;2022-11-18T17:54:16;17.00;;;10.27;;
3309;SDS011;1667;53.238;10.394;2022-11-18T17:59:15;14.73;;;8.73;;
3309;SDS011;1667;53.238;10.394;2022-11-18T18:04:15;21.50;;;10.00;;
3309;SDS011;1667;53.238;10.394;2022-11-18T18:16:10;20.60;;;12.70;;
3309;SDS011;1667;53.238;10.394;2022-11-18T18:21:09;21.07;;;11.83;;
3309;SDS011;1667;53.238;10.394;2022-11-18T18:26:09;16.37;;;10.80;;
3309;SDS011;1667;53.238;10.394;2022-11-18T18:31:08;14.67;;;9.67;;
3309;SDS011;1667;53.238;10.394;2022-11-18T18:36:10;16.47;;;9.73;;
3309;SDS011;1667;53.238;10.394;2022-11-18T18:41:10;13.30;;;9.13;;
3309;SDS011;1667;53.238;10.394;2022-11-18T18:46:14;13.73;;;8.17;;
3309;SDS011;1667;53.238;10.394;2022-11-18T18:51:28;5.70;;;4.63;;
3309;SDS011;1667;53.238;10.394;2022-11-18T18:56:28;11.23;;;6.60;;
3309;SDS011;1667;53.238;10.394;2022-11-18T19:01:26;10.67;;;5.40;;
3309;SDS011;1667;53.238;10.394;2022-11-18T19:06:25;7.13;;;5.67;;
3309;SDS011;1667;53.238;10.394;2022-11-18T19:11:46;7.50;;;5.00;;
3309;SDS011;1667;53.238;10.394;2022-11-18T19:17:02;7.90;;;5.00;;
3309;SDS011;1667;53.238;10.394;2022-11-18T19:22:22;9.77;;;6.50;;
3309;SDS011;1667;53.238;10.394;2022-11-18T19:27:20;7.17;;;5.40;;
3309;SDS011;1667;53.238;10.394;2022-11-18T19:32:18;12.63;;;6.70;;
3309;SDS011;1667;53.238;10.394;2022-11-18T19:43:07;10.43;;;7.10;;
3309;SDS011;1667;53.238;10.394;2022-11-18T19:54:53;18.67;;;11.13;;
3309;SDS011;1667;53.238;10.394;2022-11-18T19:59:54;12.50;;;8.23;;
3309;SDS011;1667;53.238;10.394;2022-11-18T20:04:52;8.90;;;5.60;;
3309;SDS011;1667;53.238;10.394;2022-11-18T20:10:08;12.13;;;7.27;;
3309;SDS011;1667;53.238;10.394;2022-11-18T20:15:09;25.13;;;11.20;;
3309;SDS011;1667;53.238;10.394;2022-11-18T20:20:07;16.33;;;9.03;;
3309;SDS011;1667;53.238;10.394;2022-11-18T20:25:07;15.73;;;7.83;;
3309;SDS011;1667;53.238;10.394;2022-11-18T20:30:06;25.83;;;11.07;;
3309;SDS011;1667;53.238;10.394;2022-11-18T20:35:06;26.63;;;14.27;;
3309;SDS011;1667;53.238;10.394;2022-11-18T20:40:05;14.47;;;7.60;;
3309;SDS011;1667;53.238;10.394;2022-11-18T20:45:05;24.93;;;11.80;;
3309;SDS011;1667;53.238;10.394;2022-11-18T20:50:04;12.50;;;8.30;;
3309;SDS011;1667;53.238;10.394;2022-11-18T20:55:04;11.30;;;8.63;;
3309;SDS011;1667;53.238;10.394;2022-11-18T21:00:03;19.50;;;14.00;;
3309;SDS011;1667;53.238;10.394;2022-11-18T21:05:02;17.63;;;10.30;;
3309;SDS011;1667;53.238;10.394;2022-11-18T21:10:02;12.20;;;7.70;;
3309;SDS011;1667;53.238;10.394;2022-11-18T21:15:01;11.70;;;7.33;;
3309;SDS011;1667;53.238;10.394;2022-11-18T21:19:59;9.03;;;6.73;;
3309;SDS011;1667;53.238;10.394;2022-11-18T21:31:16;10.93;;;8.20;;
3309;SDS011;1667;53.238;10.394;2022-11-18T21:36:19;11.10;;;6.63;;
3309;SDS011;1667;53.238;10.394;2022-11-18T21:41:18;12.10;;;7.23;;
3309;SDS011;1667;53.238;10.394;2022-11-18T21:46:17;11.30;;;7.07;;
3309;SDS011;1667;53.238;10.394;2022-11-18T21:51:18;10.67;;;6.63;;
3309;SDS011;1667;53.238;10.394;2022-11-18T21:56:17;12.67;;;9.67;;
3309;SDS011;1667;53.238;10.394;2022-11-18T22:01:19;12.17;;;8.20;;
3309;SDS011;1667;53.238;10.394;2022-11-18T22:06:19;22.20;;;8.97;;
3309;SDS011;1667;53.238;10.394;2022-11-18T22:11:17;17.33;;;9.37;;
3309;SDS011;1667;53.238;10.394;2022-11-18T22:16:19;13.60;;;7.60;;
3309;SDS011;1667;53.238;10.394;2022-11-18T22:28:14;9.60;;;7.10;;
3309;SDS011;1667;53.238;10.394;2022-11-18T22:33:14;10.80;;;6.73;;
3309;SDS011;1667;53.238;10.394;2022-11-18T22:38:12;9.27;;;6.63;;
3309;SDS011;1667;53.238;10.394;2022-11-18T22:43:10;9.53;;;6.27;;
3309;SDS011;1667;53.238;10.394;2022-11-18T22:48:08;9.20;;;6.23;;
3309;SDS011;1667;53.238;10.394;2022-11-18T22:53:07;10.53;;;5.73;;
3309;SDS011;1667;53.238;10.394;2022-11-18T22:58:05;11.13;;;4.90;;
3309;SDS011;1667;53.238;10.394;2022-11-18T23:03:04;8.63;;;5.93;;
3309;SDS011;1667;53.238;10.394;2022-11-18T23:08:02;9.00;;;5.97;;
3309;SDS011;1667;53.238;10.394;2022-11-18T23:13:01;21.30;;;10.40;;
3309;SDS011;1667;53.238;10.394;2022-11-18T23:18:17;11.67;;;7.57;;
3309;SDS011;1667;53.238;10.394;2022-11-18T23:23:15;11.77;;;7.60;;
3309;SDS011;1667;53.238;10.394;2022-11-18T23:28:15;9.37;;;6.50;;
3309;SDS011;1667;53.238;10.394;2022-11-18T23:33:13;14.30;;;7.60;;
3309;SDS011;1667;53.238;10.394;2022-11-18T23:38:13;14.23;;;9.40;;
3309;SDS011;1667;53.238;10.394;2022-11-18T23:43:11;16.23;;;8.70;;
3309;SDS011;1667;53.238;10.394;2022-11-18T23:48:10;21.17;;;8.20;;
3309;SDS011;1667;53.238;10.394;2022-11-18T23:53:09;13.30;;;8.63;;
3309;SDS011;1667;53.238;10.394;2022-11-18T23:58:07;15.40;;;9.00;;
